sensor_id;sensor_type;location;lat;lon;timestamp;P1;durP1;ratioP1;P2;durP2;ratioP2
74541;SDS011;63015;45.378;20.360;2022-12-29T00:00:28;24.63;;;10.35;;
74541;SDS011;63015;45.378;20.360;2022-12-29T00:02:28;23.55;;;11.70;;
74541;SDS011;63015;45.378;20.360;2022-12-29T00:04:29;20.80;;;10.63;;
74541;SDS011;63015;45.378;20.360;2022-12-29T00:06:30;23.00;;;10.18;;
74541;SDS011;63015;45.378;20.360;2022-12-29T00:08:31;18.88;;;8.60;;
74541;SDS011;63015;45.378;20.360;2022-12-29T00:10:40;16.13;;;7.35;;
74541;SDS011;63015;45.378;20.360;2022-12-29T00:12:41;17.67;;;9.48;;
74541;SDS011;63015;45.378;20.360;2022-12-29T00:15:05;19.50;;;8.90;;
74541;SDS011;63015;45.378;20.360;2022-12-29T00:17:38;11.70;;;5.18;;
74541;SDS011;63015;45.378;20.360;2022-12-29T00:19:39;14.48;;;6.93;;
74541;SDS011;63015;45.378;20.360;2022-12-29T00:21:59;17.63;;;9.32;;
74541;SDS011;63015;45.378;20.360;2022-12-29T00:24:19;18.88;;;10.68;;
74541;SDS011;63015;45.378;20.360;2022-12-29T00:26:26;16.42;;;7.70;;
74541;SDS011;63015;45.378;20.360;2022-12-29T00:28:46;22.60;;;9.30;;
74541;SDS011;63015;45.378;20.360;2022-12-29T00:31:07;19.02;;;8.60;;
74541;SDS011;63015;45.378;20.360;2022-12-29T00:33:30;21.60;;;9.90;;
74541;SDS011;63015;45.378;20.360;2022-12-29T00:35:52;17.58;;;8.70;;
74541;SDS011;63015;45.378;20.360;2022-12-29T00:37:58;20.48;;;7.72;;
74541;SDS011;63015;45.378;20.360;2022-12-29T00:40:23;21.52;;;9.93;;
74541;SDS011;63015;45.378;20.360;2022-12-29T00:42:42;15.20;;;6.45;;
74541;SDS011;63015;45.378;20.360;2022-12-29T00:45:01;9.45;;;4.47;;
74541;SDS011;63015;45.378;20.360;2022-12-29T00:47:03;21.58;;;10.35;;
74541;SDS011;63015;45.378;20.360;2022-12-29T00:49:06;17.02;;;8.00;;
74541;SDS011;63015;45.378;20.360;2022-12-29T00:51:28;14.13;;;7.53;;
74541;SDS011;63015;45.378;20.360;2022-12-29T00:53:29;17.58;;;7.88;;
74541;SDS011;63015;45.378;20.360;2022-12-29T00:55:29;12.95;;;5.97;;
74541;SDS011;63015;45.378;20.360;2022-12-29T00:57:30;14.32;;;7.75;;
74541;SDS011;63015;45.378;20.360;2022-12-29T00:59:30;17.30;;;6.93;;
74541;SDS011;63015;45.378;20.360;2022-12-29T01:01:31;17.70;;;6.97;;
74541;SDS011;63015;45.378;20.360;2022-12-29T01:03:32;12.90;;;6.72;;
74541;SDS011;63015;45.378;20.360;2022-12-29T01:05:37;13.00;;;6.45;;
74541;SDS011;63015;45.378;20.360;2022-12-29T01:07:38;12.90;;;6.63;;
74541;SDS011;63015;45.378;20.360;2022-12-29T01:09:38;15.52;;;7.13;;
74541;SDS011;63015;45.378;20.360;2022-12-29T01:11:57;12.45;;;5.95;;
74541;SDS011;63015;45.378;20.360;2022-12-29T01:13:58;16.42;;;6.72;;
74541;SDS011;63015;45.378;20.360;2022-12-29T01:15:58;13.77;;;6.18;;
74541;SDS011;63015;45.378;20.360;2022-12-29T01:17:59;18.02;;;7.68;;
74541;SDS011;63015;45.378;20.360;2022-12-29T01:20:00;13.85;;;6.50;;
74541;SDS011;63015;45.378;20.360;2022-12-29T01:22:00;18.10;;;6.85;;
74541;SDS011;63015;45.378;20.360;2022-12-29T01:24:02;17.25;;;6.40;;
74541;SDS011;63015;45.378;20.360;2022-12-29T01:26:09;15.02;;;6.40;;
74541;SDS011;63015;45.378;20.360;2022-12-29T01:28:11;14.77;;;6.50;;
74541;SDS011;63015;45.378;20.360;2022-12-29T01:30:12;13.00;;;5.18;;
74541;SDS011;63015;45.378;20.360;2022-12-29T01:32:12;15.88;;;6.30;;
74541;SDS011;63015;45.378;20.360;2022-12-29T01:34:13;12.50;;;5.63;;
74541;SDS011;63015;45.378;20.360;2022-12-29T01:36:14;16.02;;;7.43;;
74541;SDS011;63015;45.378;20.360;2022-12-29T01:38:17;13.95;;;6.50;;
74541;SDS011;63015;45.378;20.360;2022-12-29T01:40:17;14.20;;;6.57;;
74541;SDS011;63015;45.378;20.360;2022-12-29T01:42:19;13.10;;;5.43;;
74541;SDS011;63015;45.378;20.360;2022-12-29T01:46:48;16.92;;;8.32;;
74541;SDS011;63015;45.378;20.360;2022-12-29T01:48:55;16.52;;;6.75;;
74541;SDS011;63015;45.378;20.360;2022-12-29T01:51:17;14.20;;;6.57;;
74541;SDS011;63015;45.378;20.360;2022-12-29T01:53:19;10.00;;;4.65;;
74541;SDS011;63015;45.378;20.360;2022-12-29T01:55:23;11.05;;;5.18;;
74541;SDS011;63015;45.378;20.360;2022-12-29T01:57:30;13.32;;;5.38;;
74541;SDS011;63015;45.378;20.360;2022-12-29T01:59:36;14.13;;;6.18;;
74541;SDS011;63015;45.378;20.360;2022-12-29T02:01:44;15.20;;;7.18;;
74541;SDS011;63015;45.378;20.360;2022-12-29T02:03:45;13.38;;;7.13;;
74541;SDS011;63015;45.378;20.360;2022-12-29T02:05:47;18.25;;;7.50;;
74541;SDS011;63015;45.378;20.360;2022-12-29T02:07:55;16.48;;;7.45;;
74541;SDS011;63015;45.378;20.360;2022-12-29T02:09:55;17.45;;;7.65;;
74541;SDS011;63015;45.378;20.360;2022-12-29T02:11:58;17.40;;;7.88;;
74541;SDS011;63015;45.378;20.360;2022-12-29T02:13:59;14.73;;;7.00;;
74541;SDS011;63015;45.378;20.360;2022-12-29T02:38:03;13.52;;;6.10;;
74541;SDS011;63015;45.378;20.360;2022-12-29T02:40:38;16.92;;;5.05;;
74541;SDS011;63015;45.378;20.360;2022-12-29T02:42:59;18.95;;;7.88;;
74541;SDS011;63015;45.378;20.360;2022-12-29T02:47:13;17.70;;;8.90;;
74541;SDS011;63015;45.378;20.360;2022-12-29T02:51:56;15.90;;;6.45;;
74541;SDS011;63015;45.378;20.360;2022-12-29T02:54:01;17.67;;;7.85;;
74541;SDS011;63015;45.378;20.360;2022-12-29T02:56:21;14.43;;;7.50;;
74541;SDS011;63015;45.378;20.360;2022-12-29T02:58:22;12.90;;;5.63;;
74541;SDS011;63015;45.378;20.360;2022-12-29T03:00:23;17.50;;;7.28;;
74541;SDS011;63015;45.378;20.360;2022-12-29T03:07:09;19.35;;;8.98;;
74541;SDS011;63015;45.378;20.360;2022-12-29T03:09:37;20.55;;;8.23;;
74541;SDS011;63015;45.378;20.360;2022-12-29T03:14:28;15.10;;;6.38;;
74541;SDS011;63015;45.378;20.360;2022-12-29T03:16:57;18.13;;;7.55;;
74541;SDS011;63015;45.378;20.360;2022-12-29T03:21:30;16.52;;;8.60;;
74541;SDS011;63015;45.378;20.360;2022-12-29T03:23:55;18.02;;;8.63;;
74541;SDS011;63015;45.378;20.360;2022-12-29T03:25:57;20.30;;;9.60;;
74541;SDS011;63015;45.378;20.360;2022-12-29T03:28:03;21.90;;;9.60;;
74541;SDS011;63015;45.378;20.360;2022-12-29T03:30:12;20.73;;;7.60;;
74541;SDS011;63015;45.378;20.360;2022-12-29T03:32:14;22.13;;;11.18;;
74541;SDS011;63015;45.378;20.360;2022-12-29T03:34:16;20.42;;;10.02;;
74541;SDS011;63015;45.378;20.360;2022-12-29T03:36:26;19.05;;;8.95;;
74541;SDS011;63015;45.378;20.360;2022-12-29T03:38:34;16.40;;;8.18;;
74541;SDS011;63015;45.378;20.360;2022-12-29T03:40:41;20.50;;;8.18;;
74541;SDS011;63015;45.378;20.360;2022-12-29T03:42:45;17.55;;;7.82;;
74541;SDS011;63015;45.378;20.360;2022-12-29T03:44:47;12.40;;;5.70;;
74541;SDS011;63015;45.378;20.360;2022-12-29T03:46:49;18.20;;;8.48;;
74541;SDS011;63015;45.378;20.360;2022-12-29T03:48:50;21.10;;;9.65;;
74541;SDS011;63015;45.378;20.360;2022-12-29T03:50:51;21.38;;;8.85;;
74541;SDS011;63015;45.378;20.360;2022-12-29T03:52:52;19.00;;;9.43;;
74541;SDS011;63015;45.378;20.360;2022-12-29T03:54:52;16.30;;;6.95;;
74541;SDS011;63015;45.378;20.360;2022-12-29T03:56:53;22.77;;;9.40;;
74541;SDS011;63015;45.378;20.360;2022-12-29T03:59:04;13.32;;;6.63;;
74541;SDS011;63015;45.378;20.360;2022-12-29T04:01:11;12.95;;;6.70;;
74541;SDS011;63015;45.378;20.360;2022-12-29T04:03:12;13.30;;;6.05;;
74541;SDS011;63015;45.378;20.360;2022-12-29T04:05:13;20.42;;;9.50;;
74541;SDS011;63015;45.378;20.360;2022-12-29T04:07:14;20.88;;;8.52;;
74541;SDS011;63015;45.378;20.360;2022-12-29T04:09:16;21.42;;;8.57;;
74541;SDS011;63015;45.378;20.360;2022-12-29T04:11:19;21.27;;;9.68;;
74541;SDS011;63015;45.378;20.360;2022-12-29T04:13:20;23.98;;;11.05;;
74541;SDS011;63015;45.378;20.360;2022-12-29T04:15:20;18.52;;;8.73;;
74541;SDS011;63015;45.378;20.360;2022-12-29T04:17:22;20.27;;;8.63;;
74541;SDS011;63015;45.378;20.360;2022-12-29T04:19:26;18.35;;;8.15;;
74541;SDS011;63015;45.378;20.360;2022-12-29T04:21:26;22.40;;;9.95;;
74541;SDS011;63015;45.378;20.360;2022-12-29T04:23:27;20.38;;;9.75;;
74541;SDS011;63015;45.378;20.360;2022-12-29T04:25:30;19.80;;;9.23;;
74541;SDS011;63015;45.378;20.360;2022-12-29T04:27:32;19.73;;;9.27;;
74541;SDS011;63015;45.378;20.360;2022-12-29T04:29:53;25.80;;;10.68;;
74541;SDS011;63015;45.378;20.360;2022-12-29T04:32:26;23.05;;;10.40;;
74541;SDS011;63015;45.378;20.360;2022-12-29T04:34:29;21.67;;;10.27;;
74541;SDS011;63015;45.378;20.360;2022-12-29T04:36:29;22.27;;;10.70;;
74541;SDS011;63015;45.378;20.360;2022-12-29T04:38:30;25.45;;;10.95;;
74541;SDS011;63015;45.378;20.360;2022-12-29T04:40:31;19.40;;;9.60;;
74541;SDS011;63015;45.378;20.360;2022-12-29T04:42:31;22.77;;;9.43;;
74541;SDS011;63015;45.378;20.360;2022-12-29T04:44:33;21.25;;;10.38;;
74541;SDS011;63015;45.378;20.360;2022-12-29T04:46:51;22.38;;;9.43;;
74541;SDS011;63015;45.378;20.360;2022-12-29T04:49:03;20.08;;;9.40;;
74541;SDS011;63015;45.378;20.360;2022-12-29T04:51:21;25.98;;;10.88;;
74541;SDS011;63015;45.378;20.360;2022-12-29T04:53:23;19.35;;;8.35;;
74541;SDS011;63015;45.378;20.360;2022-12-29T04:55:27;25.88;;;11.07;;
74541;SDS011;63015;45.378;20.360;2022-12-29T04:57:27;16.50;;;7.60;;
74541;SDS011;63015;45.378;20.360;2022-12-29T04:59:32;19.88;;;9.13;;
74541;SDS011;63015;45.378;20.360;2022-12-29T05:01:33;20.05;;;9.35;;
74541;SDS011;63015;45.378;20.360;2022-12-29T05:03:34;19.27;;;8.93;;
74541;SDS011;63015;45.378;20.360;2022-12-29T05:05:34;22.77;;;10.75;;
74541;SDS011;63015;45.378;20.360;2022-12-29T05:07:35;22.60;;;9.23;;
74541;SDS011;63015;45.378;20.360;2022-12-29T05:09:36;23.83;;;10.40;;
74541;SDS011;63015;45.378;20.360;2022-12-29T05:11:36;19.85;;;9.30;;
74541;SDS011;63015;45.378;20.360;2022-12-29T05:13:37;21.85;;;10.27;;
74541;SDS011;63015;45.378;20.360;2022-12-29T05:15:38;21.10;;;10.20;;
74541;SDS011;63015;45.378;20.360;2022-12-29T05:20:17;24.80;;;12.27;;
74541;SDS011;63015;45.378;20.360;2022-12-29T05:22:17;15.10;;;7.30;;
74541;SDS011;63015;45.378;20.360;2022-12-29T05:24:18;14.45;;;7.60;;
74541;SDS011;63015;45.378;20.360;2022-12-29T05:26:19;22.55;;;12.25;;
74541;SDS011;63015;45.378;20.360;2022-12-29T05:28:38;17.98;;;7.60;;
74541;SDS011;63015;45.378;20.360;2022-12-29T05:30:48;23.05;;;10.02;;
74541;SDS011;63015;45.378;20.360;2022-12-29T05:32:51;27.95;;;11.65;;
74541;SDS011;63015;45.378;20.360;2022-12-29T05:34:52;33.80;;;13.63;;
74541;SDS011;63015;45.378;20.360;2022-12-29T05:36:53;33.10;;;12.98;;
74541;SDS011;63015;45.378;20.360;2022-12-29T05:38:53;17.77;;;7.13;;
74541;SDS011;63015;45.378;20.360;2022-12-29T05:40:54;24.60;;;11.88;;
74541;SDS011;63015;45.378;20.360;2022-12-29T05:43:15;26.40;;;13.90;;
74541;SDS011;63015;45.378;20.360;2022-12-29T05:45:42;16.30;;;7.95;;
74541;SDS011;63015;45.378;20.360;2022-12-29T05:47:58;14.45;;;8.13;;
74541;SDS011;63015;45.378;20.360;2022-12-29T05:50:22;26.30;;;11.55;;
74541;SDS011;63015;45.378;20.360;2022-12-29T05:52:41;17.70;;;8.25;;
74541;SDS011;63015;45.378;20.360;2022-12-29T05:54:42;14.77;;;8.05;;
74541;SDS011;63015;45.378;20.360;2022-12-29T05:56:46;20.30;;;10.15;;
74541;SDS011;63015;45.378;20.360;2022-12-29T05:58:47;15.48;;;8.10;;
74541;SDS011;63015;45.378;20.360;2022-12-29T06:00:47;23.45;;;11.48;;
74541;SDS011;63015;45.378;20.360;2022-12-29T06:02:48;16.40;;;7.43;;
74541;SDS011;63015;45.378;20.360;2022-12-29T06:04:50;18.58;;;9.82;;
74541;SDS011;63015;45.378;20.360;2022-12-29T06:06:51;17.70;;;8.90;;
74541;SDS011;63015;45.378;20.360;2022-12-29T06:08:58;21.60;;;9.82;;
74541;SDS011;63015;45.378;20.360;2022-12-29T06:10:59;23.52;;;11.55;;
74541;SDS011;63015;45.378;20.360;2022-12-29T06:13:00;17.02;;;8.65;;
74541;SDS011;63015;45.378;20.360;2022-12-29T06:15:00;22.15;;;12.05;;
74541;SDS011;63015;45.378;20.360;2022-12-29T06:17:01;22.83;;;11.68;;
74541;SDS011;63015;45.378;20.360;2022-12-29T06:19:02;23.52;;;11.25;;
74541;SDS011;63015;45.378;20.360;2022-12-29T06:21:04;20.27;;;7.90;;
74541;SDS011;63015;45.378;20.360;2022-12-29T06:23:06;20.38;;;10.55;;
74541;SDS011;63015;45.378;20.360;2022-12-29T06:25:06;23.70;;;10.60;;
74541;SDS011;63015;45.378;20.360;2022-12-29T06:27:08;24.25;;;10.98;;
74541;SDS011;63015;45.378;20.360;2022-12-29T06:29:10;24.23;;;13.30;;
74541;SDS011;63015;45.378;20.360;2022-12-29T06:31:11;23.40;;;11.10;;
74541;SDS011;63015;45.378;20.360;2022-12-29T06:33:12;23.73;;;11.52;;
74541;SDS011;63015;45.378;20.360;2022-12-29T06:35:13;27.05;;;12.98;;
74541;SDS011;63015;45.378;20.360;2022-12-29T06:37:18;16.17;;;8.55;;
74541;SDS011;63015;45.378;20.360;2022-12-29T06:39:19;15.30;;;7.30;;
74541;SDS011;63015;45.378;20.360;2022-12-29T06:41:33;21.70;;;11.35;;
74541;SDS011;63015;45.378;20.360;2022-12-29T06:43:42;30.35;;;13.23;;
74541;SDS011;63015;45.378;20.360;2022-12-29T06:45:54;24.77;;;10.57;;
74541;SDS011;63015;45.378;20.360;2022-12-29T06:47:55;24.05;;;10.95;;
74541;SDS011;63015;45.378;20.360;2022-12-29T06:49:56;18.40;;;7.97;;
74541;SDS011;63015;45.378;20.360;2022-12-29T06:51:56;19.35;;;9.15;;
74541;SDS011;63015;45.378;20.360;2022-12-29T06:53:58;23.83;;;10.65;;
74541;SDS011;63015;45.378;20.360;2022-12-29T06:55:58;18.10;;;7.78;;
74541;SDS011;63015;45.378;20.360;2022-12-29T06:57:59;18.98;;;9.05;;
74541;SDS011;63015;45.378;20.360;2022-12-29T07:00:01;27.60;;;12.02;;
74541;SDS011;63015;45.378;20.360;2022-12-29T07:02:02;22.33;;;11.38;;
74541;SDS011;63015;45.378;20.360;2022-12-29T07:04:03;25.13;;;13.55;;
74541;SDS011;63015;45.378;20.360;2022-12-29T07:06:04;25.70;;;11.68;;
74541;SDS011;63015;45.378;20.360;2022-12-29T07:08:05;23.65;;;13.27;;
74541;SDS011;63015;45.378;20.360;2022-12-29T07:10:05;18.02;;;10.45;;
74541;SDS011;63015;45.378;20.360;2022-12-29T07:12:06;25.45;;;12.95;;
74541;SDS011;63015;45.378;20.360;2022-12-29T07:14:07;30.63;;;14.55;;
74541;SDS011;63015;45.378;20.360;2022-12-29T07:16:08;29.63;;;14.52;;
74541;SDS011;63015;45.378;20.360;2022-12-29T07:18:09;24.80;;;13.38;;
74541;SDS011;63015;45.378;20.360;2022-12-29T07:20:09;22.90;;;11.63;;
74541;SDS011;63015;45.378;20.360;2022-12-29T07:22:10;22.55;;;13.35;;
74541;SDS011;63015;45.378;20.360;2022-12-29T07:24:11;24.60;;;11.90;;
74541;SDS011;63015;45.378;20.360;2022-12-29T07:26:12;18.73;;;7.78;;
74541;SDS011;63015;45.378;20.360;2022-12-29T07:28:14;13.95;;;8.15;;
74541;SDS011;63015;45.378;20.360;2022-12-29T07:30:14;26.48;;;11.98;;
74541;SDS011;63015;45.378;20.360;2022-12-29T07:32:15;20.95;;;11.18;;
74541;SDS011;63015;45.378;20.360;2022-12-29T07:34:15;23.50;;;11.35;;
74541;SDS011;63015;45.378;20.360;2022-12-29T07:36:16;16.67;;;9.68;;
74541;SDS011;63015;45.378;20.360;2022-12-29T07:38:16;16.58;;;9.10;;
74541;SDS011;63015;45.378;20.360;2022-12-29T07:40:17;22.02;;;11.25;;
74541;SDS011;63015;45.378;20.360;2022-12-29T07:42:17;20.38;;;9.18;;
74541;SDS011;63015;45.378;20.360;2022-12-29T07:44:24;36.05;;;17.02;;
74541;SDS011;63015;45.378;20.360;2022-12-29T07:46:47;41.03;;;17.23;;
74541;SDS011;63015;45.378;20.360;2022-12-29T07:48:48;26.85;;;12.07;;
74541;SDS011;63015;45.378;20.360;2022-12-29T07:50:48;42.60;;;17.33;;
74541;SDS011;63015;45.378;20.360;2022-12-29T07:52:49;35.13;;;15.63;;
74541;SDS011;63015;45.378;20.360;2022-12-29T07:54:50;46.28;;;18.77;;
74541;SDS011;63015;45.378;20.360;2022-12-29T07:56:50;65.90;;;25.83;;
74541;SDS011;63015;45.378;20.360;2022-12-29T07:58:51;23.85;;;12.55;;
74541;SDS011;63015;45.378;20.360;2022-12-29T08:00:55;36.30;;;17.15;;
74541;SDS011;63015;45.378;20.360;2022-12-29T08:02:56;54.38;;;21.45;;
74541;SDS011;63015;45.378;20.360;2022-12-29T08:04:56;64.63;;;24.30;;
74541;SDS011;63015;45.378;20.360;2022-12-29T08:06:57;35.58;;;17.23;;
74541;SDS011;63015;45.378;20.360;2022-12-29T08:08:57;63.65;;;23.73;;
74541;SDS011;63015;45.378;20.360;2022-12-29T08:10:58;32.70;;;12.60;;
74541;SDS011;63015;45.378;20.360;2022-12-29T08:12:58;26.23;;;11.05;;
74541;SDS011;63015;45.378;20.360;2022-12-29T08:14:59;33.80;;;15.60;;
74541;SDS011;63015;45.378;20.360;2022-12-29T08:16:59;22.27;;;9.30;;
74541;SDS011;63015;45.378;20.360;2022-12-29T08:19:00;24.65;;;11.40;;
74541;SDS011;63015;45.378;20.360;2022-12-29T08:21:03;16.10;;;8.68;;
74541;SDS011;63015;45.378;20.360;2022-12-29T08:23:04;24.20;;;11.88;;
74541;SDS011;63015;45.378;20.360;2022-12-29T08:25:05;27.27;;;12.57;;
74541;SDS011;63015;45.378;20.360;2022-12-29T08:27:05;19.13;;;8.35;;
74541;SDS011;63015;45.378;20.360;2022-12-29T08:29:06;22.92;;;11.45;;
74541;SDS011;63015;45.378;20.360;2022-12-29T08:31:06;27.73;;;12.20;;
74541;SDS011;63015;45.378;20.360;2022-12-29T08:33:07;30.38;;;12.30;;
74541;SDS011;63015;45.378;20.360;2022-12-29T08:35:07;13.45;;;7.60;;
74541;SDS011;63015;45.378;20.360;2022-12-29T08:37:09;24.13;;;11.25;;
74541;SDS011;63015;45.378;20.360;2022-12-29T08:39:09;19.20;;;7.53;;
74541;SDS011;63015;45.378;20.360;2022-12-29T08:41:10;30.60;;;13.43;;
74541;SDS011;63015;45.378;20.360;2022-12-29T08:43:10;25.17;;;11.85;;
74541;SDS011;63015;45.378;20.360;2022-12-29T08:45:11;25.48;;;12.88;;
74541;SDS011;63015;45.378;20.360;2022-12-29T08:47:11;25.13;;;12.23;;
74541;SDS011;63015;45.378;20.360;2022-12-29T08:49:12;16.60;;;7.88;;
74541;SDS011;63015;45.378;20.360;2022-12-29T08:51:12;19.40;;;9.93;;
74541;SDS011;63015;45.378;20.360;2022-12-29T08:53:13;21.13;;;9.35;;
74541;SDS011;63015;45.378;20.360;2022-12-29T08:55:14;22.23;;;11.55;;
74541;SDS011;63015;45.378;20.360;2022-12-29T08:57:15;29.42;;;13.07;;
74541;SDS011;63015;45.378;20.360;2022-12-29T08:59:31;21.27;;;11.15;;
74541;SDS011;63015;45.378;20.360;2022-12-29T09:01:31;22.20;;;10.73;;
74541;SDS011;63015;45.378;20.360;2022-12-29T09:03:33;17.63;;;9.10;;
74541;SDS011;63015;45.378;20.360;2022-12-29T09:05:34;20.23;;;10.65;;
74541;SDS011;63015;45.378;20.360;2022-12-29T09:07:34;20.30;;;10.90;;
74541;SDS011;63015;45.378;20.360;2022-12-29T09:09:35;21.77;;;10.25;;
74541;SDS011;63015;45.378;20.360;2022-12-29T09:11:35;24.77;;;11.63;;
74541;SDS011;63015;45.378;20.360;2022-12-29T09:13:36;19.48;;;9.60;;
74541;SDS011;63015;45.378;20.360;2022-12-29T09:15:37;22.63;;;11.13;;
74541;SDS011;63015;45.378;20.360;2022-12-29T09:17:37;21.75;;;10.98;;
74541;SDS011;63015;45.378;20.360;2022-12-29T09:19:42;21.15;;;10.48;;
74541;SDS011;63015;45.378;20.360;2022-12-29T09:21:42;23.10;;;10.10;;
74541;SDS011;63015;45.378;20.360;2022-12-29T09:23:43;31.33;;;15.80;;
74541;SDS011;63015;45.378;20.360;2022-12-29T09:25:43;25.65;;;13.80;;
74541;SDS011;63015;45.378;20.360;2022-12-29T09:27:44;28.52;;;12.85;;
74541;SDS011;63015;45.378;20.360;2022-12-29T09:29:45;22.73;;;10.18;;
74541;SDS011;63015;45.378;20.360;2022-12-29T09:31:45;34.60;;;14.85;;
74541;SDS011;63015;45.378;20.360;2022-12-29T09:33:46;26.98;;;13.48;;
74541;SDS011;63015;45.378;20.360;2022-12-29T09:35:54;30.02;;;14.15;;
74541;SDS011;63015;45.378;20.360;2022-12-29T09:37:56;23.13;;;11.43;;
74541;SDS011;63015;45.378;20.360;2022-12-29T09:39:56;20.67;;;11.55;;
74541;SDS011;63015;45.378;20.360;2022-12-29T09:44:14;15.68;;;8.40;;
74541;SDS011;63015;45.378;20.360;2022-12-29T09:46:18;13.80;;;6.97;;
74541;SDS011;63015;45.378;20.360;2022-12-29T09:48:33;20.02;;;11.80;;
74541;SDS011;63015;45.378;20.360;2022-12-29T09:50:37;13.90;;;7.30;;
74541;SDS011;63015;45.378;20.360;2022-12-29T09:52:54;13.80;;;8.45;;
74541;SDS011;63015;45.378;20.360;2022-12-29T09:57:24;18.58;;;7.68;;
74541;SDS011;63015;45.378;20.360;2022-12-29T09:59:41;33.50;;;12.80;;
74541;SDS011;63015;45.378;20.360;2022-12-29T10:01:46;23.27;;;12.73;;
74541;SDS011;63015;45.378;20.360;2022-12-29T10:03:54;48.80;;;22.42;;
74541;SDS011;63015;45.378;20.360;2022-12-29T10:08:25;35.30;;;15.18;;
74541;SDS011;63015;45.378;20.360;2022-12-29T10:10:35;22.65;;;11.88;;
74541;SDS011;63015;45.378;20.360;2022-12-29T10:23:52;22.42;;;10.23;;
74541;SDS011;63015;45.378;20.360;2022-12-29T10:25:54;19.05;;;10.68;;
74541;SDS011;63015;45.378;20.360;2022-12-29T10:27:57;25.92;;;11.43;;
74541;SDS011;63015;45.378;20.360;2022-12-29T10:30:02;20.52;;;8.98;;
74541;SDS011;63015;45.378;20.360;2022-12-29T10:32:10;27.42;;;13.23;;
74541;SDS011;63015;45.378;20.360;2022-12-29T10:34:21;26.92;;;10.60;;
74541;SDS011;63015;45.378;20.360;2022-12-29T10:36:38;23.15;;;11.18;;
74541;SDS011;63015;45.378;20.360;2022-12-29T10:41:15;21.30;;;10.90;;
74541;SDS011;63015;45.378;20.360;2022-12-29T10:43:25;38.08;;;16.63;;
74541;SDS011;63015;45.378;20.360;2022-12-29T10:45:31;22.73;;;12.45;;
74541;SDS011;63015;45.378;20.360;2022-12-29T10:47:35;19.88;;;10.77;;
74541;SDS011;63015;45.378;20.360;2022-12-29T10:49:42;31.20;;;14.73;;
74541;SDS011;63015;45.378;20.360;2022-12-29T10:51:46;20.75;;;10.20;;
74541;SDS011;63015;45.378;20.360;2022-12-29T10:53:51;28.42;;;13.55;;
74541;SDS011;63015;45.378;20.360;2022-12-29T10:55:55;22.17;;;11.88;;
74541;SDS011;63015;45.378;20.360;2022-12-29T10:57:56;20.00;;;10.90;;
74541;SDS011;63015;45.378;20.360;2022-12-29T11:00:17;24.75;;;13.10;;
74541;SDS011;63015;45.378;20.360;2022-12-29T11:04:26;22.52;;;13.38;;
74541;SDS011;63015;45.378;20.360;2022-12-29T11:06:36;23.98;;;12.45;;
74541;SDS011;63015;45.378;20.360;2022-12-29T11:08:38;21.40;;;12.68;;
74541;SDS011;63015;45.378;20.360;2022-12-29T11:10:57;20.35;;;11.68;;
74541;SDS011;63015;45.378;20.360;2022-12-29T11:13:04;19.52;;;12.73;;
74541;SDS011;63015;45.378;20.360;2022-12-29T11:15:17;29.13;;;14.10;;
74541;SDS011;63015;45.378;20.360;2022-12-29T11:17:18;24.17;;;13.90;;
74541;SDS011;63015;45.378;20.360;2022-12-29T11:19:22;23.38;;;12.82;;
74541;SDS011;63015;45.378;20.360;2022-12-29T11:21:32;21.95;;;11.63;;
74541;SDS011;63015;45.378;20.360;2022-12-29T11:23:40;21.77;;;11.27;;
74541;SDS011;63015;45.378;20.360;2022-12-29T11:25:41;26.50;;;13.98;;
74541;SDS011;63015;45.378;20.360;2022-12-29T11:27:42;24.02;;;12.93;;
74541;SDS011;63015;45.378;20.360;2022-12-29T11:29:55;23.88;;;12.52;;
74541;SDS011;63015;45.378;20.360;2022-12-29T11:31:57;24.33;;;13.00;;
74541;SDS011;63015;45.378;20.360;2022-12-29T11:33:59;26.02;;;12.57;;
74541;SDS011;63015;45.378;20.360;2022-12-29T11:36:15;22.35;;;11.43;;
74541;SDS011;63015;45.378;20.360;2022-12-29T11:38:20;20.90;;;11.70;;
74541;SDS011;63015;45.378;20.360;2022-12-29T11:40:23;27.67;;;13.85;;
74541;SDS011;63015;45.378;20.360;2022-12-29T11:42:37;20.70;;;10.90;;
74541;SDS011;63015;45.378;20.360;2022-12-29T11:44:46;20.77;;;11.90;;
74541;SDS011;63015;45.378;20.360;2022-12-29T11:46:49;24.75;;;13.52;;
74541;SDS011;63015;45.378;20.360;2022-12-29T11:48:51;22.33;;;12.98;;
74541;SDS011;63015;45.378;20.360;2022-12-29T11:50:55;21.98;;;13.00;;
74541;SDS011;63015;45.378;20.360;2022-12-29T11:53:08;24.35;;;13.60;;
74541;SDS011;63015;45.378;20.360;2022-12-29T11:55:21;25.63;;;12.43;;
74541;SDS011;63015;45.378;20.360;2022-12-29T11:57:25;24.70;;;14.82;;
74541;SDS011;63015;45.378;20.360;2022-12-29T12:01:33;21.58;;;12.45;;
74541;SDS011;63015;45.378;20.360;2022-12-29T12:03:38;26.98;;;15.25;;
74541;SDS011;63015;45.378;20.360;2022-12-29T12:05:46;24.08;;;12.80;;
74541;SDS011;63015;45.378;20.360;2022-12-29T12:07:55;21.85;;;14.13;;
74541;SDS011;63015;45.378;20.360;2022-12-29T12:10:03;25.63;;;15.38;;
74541;SDS011;63015;45.378;20.360;2022-12-29T12:12:07;23.52;;;13.00;;
74541;SDS011;63015;45.378;20.360;2022-12-29T12:16:55;26.48;;;14.18;;
74541;SDS011;63015;45.378;20.360;2022-12-29T12:19:04;25.67;;;14.20;;
74541;SDS011;63015;45.378;20.360;2022-12-29T12:26:16;27.00;;;14.95;;
74541;SDS011;63015;45.378;20.360;2022-12-29T12:28:22;28.65;;;15.10;;
74541;SDS011;63015;45.378;20.360;2022-12-29T12:30:27;28.80;;;15.15;;
74541;SDS011;63015;45.378;20.360;2022-12-29T12:32:45;26.30;;;13.50;;
74541;SDS011;63015;45.378;20.360;2022-12-29T12:34:52;33.00;;;16.92;;
74541;SDS011;63015;45.378;20.360;2022-12-29T12:39:12;27.10;;;14.90;;
74541;SDS011;63015;45.378;20.360;2022-12-29T12:43:51;28.08;;;14.18;;
74541;SDS011;63015;45.378;20.360;2022-12-29T12:46:03;28.25;;;14.70;;
74541;SDS011;63015;45.378;20.360;2022-12-29T12:53:44;23.77;;;14.10;;
74541;SDS011;63015;45.378;20.360;2022-12-29T12:55:49;24.85;;;15.63;;
74541;SDS011;63015;45.378;20.360;2022-12-29T13:00:57;28.63;;;14.85;;
74541;SDS011;63015;45.378;20.360;2022-12-29T13:05:24;39.47;;;20.20;;
74541;SDS011;63015;45.378;20.360;2022-12-29T13:10:19;31.85;;;16.27;;
74541;SDS011;63015;45.378;20.360;2022-12-29T13:12:49;30.63;;;16.90;;
74541;SDS011;63015;45.378;20.360;2022-12-29T13:19:38;32.17;;;17.55;;
74541;SDS011;63015;45.378;20.360;2022-12-29T13:21:50;27.05;;;15.57;;
74541;SDS011;63015;45.378;20.360;2022-12-29T13:24:04;37.08;;;19.38;;
74541;SDS011;63015;45.378;20.360;2022-12-29T13:26:42;38.83;;;20.20;;
74541;SDS011;63015;45.378;20.360;2022-12-29T13:31:30;36.35;;;19.33;;
74541;SDS011;63015;45.378;20.360;2022-12-29T13:38:11;39.63;;;21.00;;
74541;SDS011;63015;45.378;20.360;2022-12-29T13:42:21;45.80;;;23.48;;
74541;SDS011;63015;45.378;20.360;2022-12-29T13:44:24;51.67;;;26.75;;
74541;SDS011;63015;45.378;20.360;2022-12-29T13:46:29;64.15;;;28.63;;
74541;SDS011;63015;45.378;20.360;2022-12-29T13:48:55;58.83;;;28.55;;
74541;SDS011;63015;45.378;20.360;2022-12-29T13:51:00;60.90;;;29.05;;
74541;SDS011;63015;45.378;20.360;2022-12-29T14:00:14;76.78;;;38.67;;